createdAt,value
2019-01-24T08:54:27.577Z,20.38
2019-01-24T08:59:31.622Z,20.46
2019-01-24T09:04:35.738Z,20.46
2019-01-24T09:09:39.962Z,20.55
2019-01-24T09:14:44.079Z,20.55
2019-01-24T09:19:48.279Z,20.33
2019-01-24T09:24:52.638Z,20.32
2019-01-24T09:29:56.816Z,20.51
2019-01-24T09:35:01.037Z,20.60
2019-01-24T09:40:08.034Z,20.48
2019-01-24T09:45:18.168Z,20.59
2019-01-24T09:50:23.446Z,20.70
2019-01-24T09:55:27.853Z,20.77
2019-01-24T10:00:34.044Z,20.78
2019-01-24T10:05:38.469Z,20.91
2019-01-24T10:10:42.598Z,20.90
2019-01-24T10:15:46.732Z,20.71
2019-01-24T10:20:50.914Z,20.67
2019-01-24T10:25:55.011Z,20.67
2019-01-24T10:30:59.109Z,20.65
2019-01-24T10:36:03.400Z,20.65
2019-01-24T10:41:07.741Z,20.97
2019-01-24T10:46:12.090Z,21.04
2019-01-24T10:51:16.281Z,21.04
2019-01-24T10:56:20.420Z,20.89
2019-01-24T11:01:24.736Z,20.72
2019-01-24T11:06:29.001Z,20.50
2019-01-24T11:11:33.260Z,20.53
2019-01-24T11:16:37.564Z,20.70
2019-01-24T11:21:41.861Z,21.05
2019-01-24T11:26:46.149Z,21.05
2019-01-24T11:31:50.356Z,21.24
2019-01-24T11:36:57.183Z,20.99
2019-01-24T11:42:00.615Z,21.02
2019-01-24T11:47:04.948Z,20.72
2019-01-24T11:52:09.424Z,20.62
2019-01-24T11:57:13.826Z,20.48
2019-01-24T12:02:18.133Z,20.55
2019-01-24T12:07:22.446Z,20.55
2019-01-24T12:12:26.638Z,21.08
2019-01-24T12:17:30.963Z,21.17
2019-01-24T12:22:35.283Z,21.05
2019-01-24T12:27:39.571Z,20.91
2019-01-24T12:32:43.936Z,20.82
2019-01-24T12:37:48.431Z,20.77
2019-01-24T12:42:52.702Z,20.71
2019-01-24T12:47:56.834Z,20.61
2019-01-24T12:53:11.285Z,14.21
2019-01-24T12:58:15.561Z,12.98
2019-01-24T13:03:19.632Z,16.03
2019-01-24T13:08:23.829Z,19.01
2019-01-24T13:13:32.279Z,20.21
2019-01-24T13:18:36.534Z,20.21
2019-01-24T13:23:40.787Z,20.98
2019-01-24T13:28:44.979Z,21.12
2019-01-24T13:33:49.266Z,20.97
2019-01-24T13:38:53.450Z,20.97
2019-01-24T13:43:57.595Z,20.67
2019-01-24T13:49:01.720Z,20.44
2019-01-24T13:54:05.988Z,20.37
2019-01-24T13:59:10.394Z,20.29
2019-01-24T14:04:18.250Z,20.29
2019-01-24T14:09:22.760Z,20.29
2019-01-24T14:14:27.368Z,20.95
2019-01-24T14:19:31.533Z,21.25
2019-01-24T14:24:35.851Z,21.11
2019-01-24T14:29:40.216Z,21.11
2019-01-24T14:34:44.542Z,20.62
2019-01-24T14:39:49.138Z,20.64
2019-01-24T14:44:53.336Z,20.51
2019-01-24T14:49:58.026Z,20.44
2019-01-24T14:55:02.205Z,20.35
2019-01-24T15:00:19.907Z,20.62
2019-01-24T15:05:24.425Z,20.90
2019-01-24T15:10:29.000Z,21.05
2019-01-24T15:15:33.406Z,20.92
2019-01-24T15:20:38.020Z,20.92
2019-01-24T15:25:42.766Z,20.45
2019-01-24T15:30:47.834Z,20.48
2019-01-24T15:35:52.470Z,20.37
2019-01-24T15:40:57.440Z,20.28
2019-01-24T15:46:02.676Z,20.26
2019-01-24T15:51:07.364Z,20.80
2019-01-24T15:56:12.450Z,21.09
2019-01-24T16:01:17.613Z,20.94
2019-01-24T16:06:22.598Z,21.02
2019-01-24T16:11:27.702Z,20.72
2019-01-24T16:16:32.754Z,20.72
2019-01-24T16:21:37.833Z,20.46
2019-01-24T16:26:42.874Z,20.50
2019-01-24T16:31:49.140Z,20.40
2019-01-24T16:36:54.304Z,20.40
2019-01-24T16:42:00.855Z,20.39
2019-01-24T16:47:06.637Z,20.39
2019-01-24T16:52:12.114Z,20.56
2019-01-24T16:57:17.746Z,21.11
2019-01-24T17:02:22.548Z,21.10
2019-01-24T17:07:28.207Z,21.31
2019-01-24T17:12:33.499Z,21.68
2019-01-24T17:17:38.413Z,22.13
2019-01-24T17:22:43.592Z,22.21
2019-01-24T17:27:48.856Z,22.42
2019-01-24T17:32:54.796Z,22.39
2019-01-24T17:38:01.072Z,22.39
2019-01-24T17:43:07.070Z,22.20
2019-01-24T17:48:12.164Z,22.24
2019-01-24T17:53:20.023Z,22.17
2019-01-24T17:58:25.681Z,22.07
2019-01-24T18:03:30.912Z,22.07
2019-01-24T18:08:36.150Z,22.06
2019-01-24T18:13:42.356Z,22.05
2019-01-24T18:18:48.017Z,22.05
2019-01-24T18:23:53.513Z,22.14
2019-01-24T18:29:00.422Z,22.15
2019-01-24T18:34:06.352Z,22.06
2019-01-24T18:39:13.672Z,22.26
2019-01-24T18:44:18.963Z,22.34
2019-01-24T18:49:24.835Z,22.23
2019-01-24T18:54:30.624Z,22.38
2019-01-24T18:59:36.547Z,22.59
2019-01-24T19:04:43.366Z,22.59
2019-01-24T19:09:49.597Z,22.17
2019-01-24T19:20:02.457Z,22.17
2019-01-24T19:25:09.512Z,22.32
2019-01-24T19:30:19.934Z,22.32
2019-01-24T19:35:26.316Z,22.47
2019-01-24T19:40:33.116Z,22.29
2019-01-24T19:45:39.883Z,22.29
2019-01-24T19:50:46.382Z,22.23
2019-01-24T19:55:52.855Z,22.19
2019-01-24T20:00:59.555Z,22.23
2019-01-24T20:06:05.836Z,22.39
2019-01-24T20:11:12.155Z,22.33
2019-01-24T20:16:18.312Z,22.24
2019-01-24T20:21:24.796Z,22.00
2019-01-24T20:26:30.864Z,21.85
2019-01-24T20:31:37.562Z,21.85
2019-01-24T20:36:43.516Z,21.80
2019-01-24T20:41:49.310Z,21.62
2019-01-24T20:46:56.066Z,21.62
2019-01-24T20:52:01.505Z,21.41
2019-01-24T20:57:06.687Z,21.26
2019-01-24T21:02:12.102Z,21.26
2019-01-24T21:07:17.030Z,21.25
2019-01-24T21:12:22.668Z,21.25
2019-01-24T21:17:28.202Z,21.15
2019-01-24T21:22:32.923Z,21.08
2019-01-24T21:27:37.387Z,21.06
2019-01-24T21:32:42.333Z,21.04
2019-01-24T21:37:47.102Z,21.00
2019-01-24T21:42:52.313Z,20.97
2019-01-24T21:47:56.867Z,20.97
2019-01-24T21:53:01.341Z,20.89
2019-01-24T21:58:07.464Z,20.89
2019-01-24T22:03:11.736Z,20.84
2019-01-24T22:08:16.051Z,20.78
2019-01-24T22:13:20.403Z,20.74
2019-01-24T22:18:24.626Z,20.74
2019-01-24T22:23:28.804Z,20.70
2019-01-24T22:28:33.023Z,20.64
2019-01-24T22:33:37.188Z,20.64
2019-01-24T22:38:41.248Z,20.62
2019-01-24T22:43:45.358Z,20.67
2019-01-24T22:48:49.551Z,20.64
2019-01-24T22:53:53.713Z,20.64
2019-01-24T22:58:57.866Z,20.65
2019-01-24T23:04:14.321Z,20.55
2019-01-24T23:09:18.397Z,20.62
2019-01-24T23:14:22.723Z,20.51
2019-01-24T23:19:26.881Z,20.63
2019-01-24T23:24:31.086Z,20.49
2019-01-24T23:29:35.353Z,20.56
2019-01-24T23:34:39.584Z,20.54
2019-01-24T23:39:43.806Z,20.54
2019-01-24T23:44:48.205Z,20.46
2019-01-24T23:49:52.348Z,20.46
2019-01-24T23:54:56.414Z,20.49
